createdAt,value
2022-09-03T00:00:13.549Z,100.00
2022-09-03T00:02:46.214Z,100.00
2022-09-03T00:05:19.680Z,100.00
2022-09-03T00:08:06.752Z,100.00
2022-09-03T00:10:39.942Z,100.00
2022-09-03T00:13:10.687Z,100.00
2022-09-03T00:15:41.002Z,100.00
2022-09-03T00:18:11.366Z,100.00
2022-09-03T00:20:44.974Z,100.00
2022-09-03T00:23:21.683Z,100.00
2022-09-03T00:25:51.925Z,100.00
2022-09-03T00:28:23.898Z,100.00
2022-09-03T00:30:55.586Z,100.00
2022-09-03T00:33:28.978Z,100.00
2022-09-03T00:36:05.208Z,100.00
2022-09-03T00:38:34.034Z,100.00
2022-09-03T00:41:06.095Z,100.00
2022-09-03T00:43:48.307Z,100.00
2022-09-03T00:46:19.755Z,100.00
2022-09-03T00:49:06.975Z,100.00
2022-09-03T00:51:37.301Z,100.00
2022-09-03T00:54:13.311Z,100.00
2022-09-03T00:56:49.908Z,100.00
2022-09-03T00:59:38.347Z,100.00
2022-09-03T01:02:28.715Z,100.00
2022-09-03T01:05:02.034Z,100.00
2022-09-03T01:07:39.972Z,100.00
2022-09-03T01:10:20.234Z,100.00
2022-09-03T01:12:56.227Z,100.00
2022-09-03T01:15:26.504Z,100.00
2022-09-03T01:17:56.803Z,100.00
2022-09-03T01:20:42.220Z,100.00
2022-09-03T01:23:15.261Z,100.00
2022-09-03T01:25:51.674Z,100.00
2022-09-03T01:28:40.926Z,100.00
2022-09-03T01:31:21.284Z,100.00
2022-09-03T01:34:08.101Z,100.00
2022-09-03T01:36:41.369Z,100.00
2022-09-03T01:39:11.579Z,100.00
2022-09-03T01:42:08.434Z,100.00
2022-09-03T01:44:55.090Z,100.00
2022-09-03T01:47:33.255Z,100.00
2022-09-03T01:50:03.615Z,100.00
2022-09-03T01:52:40.771Z,100.00
2022-09-03T01:55:27.871Z,100.00
2022-09-03T01:58:07.151Z,100.00
2022-09-03T02:00:37.336Z,100.00
2022-09-03T02:03:07.661Z,100.00
2022-09-03T02:05:36.961Z,100.00
2022-09-03T02:08:07.348Z,100.00
2022-09-03T02:10:46.513Z,100.00
2022-09-03T02:13:19.720Z,100.00
2022-09-03T02:15:49.775Z,100.00
2022-09-03T02:18:23.180Z,100.00
2022-09-03T02:20:53.489Z,100.00
2022-09-03T02:23:24.666Z,100.00
2022-09-03T02:25:54.507Z,100.00
2022-09-03T02:28:24.458Z,100.00
2022-09-03T02:30:53.439Z,100.00
2022-09-03T02:33:22.342Z,100.00
2022-09-03T02:35:52.073Z,100.00
2022-09-03T02:38:21.988Z,100.00
2022-09-03T02:40:50.682Z,100.00
2022-09-03T02:43:25.943Z,100.00
2022-09-03T02:45:56.996Z,100.00
2022-09-03T02:48:25.915Z,100.00
2022-09-03T02:50:54.824Z,100.00
2022-09-03T02:53:24.194Z,100.00
2022-09-03T02:55:53.071Z,100.00
2022-09-03T02:58:21.913Z,100.00
2022-09-03T03:00:50.696Z,100.00
2022-09-03T03:03:19.442Z,100.00
2022-09-03T03:05:49.767Z,100.00
2022-09-03T03:08:21.169Z,100.00
2022-09-03T03:10:51.774Z,100.00
2022-09-03T03:13:20.864Z,100.00
2022-09-03T03:15:49.631Z,100.00
2022-09-03T03:18:18.345Z,100.00
2022-09-03T03:20:49.404Z,100.00
2022-09-03T03:23:18.498Z,100.00
2022-09-03T03:25:47.594Z,100.00
2022-09-03T03:28:18.119Z,100.00
2022-09-03T03:30:48.733Z,100.00
2022-09-03T03:33:17.641Z,100.00
2022-09-03T03:35:46.636Z,100.00
2022-09-03T03:38:15.383Z,100.00
2022-09-03T03:40:44.995Z,100.00
2022-09-03T03:43:13.730Z,100.00
2022-09-03T03:45:42.484Z,100.00
2022-09-03T03:48:11.257Z,100.00
2022-09-03T03:50:40.089Z,100.00
2022-09-03T03:53:09.106Z,100.00
2022-09-03T03:55:39.189Z,100.00
2022-09-03T03:58:08.094Z,100.00
2022-09-03T04:00:37.864Z,100.00
2022-09-03T04:03:06.592Z,100.00
2022-09-03T04:05:35.387Z,100.00
2022-09-03T04:08:04.331Z,100.00
2022-09-03T04:10:33.264Z,100.00
2022-09-03T04:13:02.051Z,100.00
2022-09-03T04:15:30.841Z,100.00
2022-09-03T04:18:00.633Z,100.00
2022-09-03T04:20:29.503Z,100.00
2022-09-03T04:23:01.586Z,100.00
2022-09-03T04:25:31.493Z,100.00
2022-09-03T04:28:00.620Z,100.00
2022-09-03T04:30:30.266Z,100.00
2022-09-03T04:33:00.865Z,100.00
2022-09-03T04:35:31.858Z,100.00
2022-09-03T04:38:00.675Z,100.00
2022-09-03T04:40:29.644Z,100.00
2022-09-03T04:42:59.563Z,100.00
2022-09-03T04:45:28.932Z,100.00
2022-09-03T04:48:04.107Z,100.00
2022-09-03T04:50:36.309Z,100.00
2022-09-03T04:53:08.213Z,100.00
2022-09-03T04:55:38.004Z,100.00
2022-09-03T04:58:10.044Z,100.00
2022-09-03T05:00:38.904Z,100.00
2022-09-03T05:03:07.640Z,100.00
2022-09-03T05:05:36.410Z,100.00
2022-09-03T05:08:06.018Z,100.00
2022-09-03T05:10:35.804Z,100.00
2022-09-03T05:13:06.064Z,100.00
2022-09-03T05:15:34.849Z,100.00
2022-09-03T05:18:04.143Z,100.00
2022-09-03T05:20:32.944Z,100.00
2022-09-03T05:23:04.559Z,100.00
2022-09-03T05:25:33.376Z,100.00
2022-09-03T05:28:02.262Z,100.00
2022-09-03T05:30:31.076Z,100.00
2022-09-03T05:32:59.860Z,100.00
2022-09-03T05:35:30.280Z,100.00
2022-09-03T05:38:00.785Z,100.00
2022-09-03T05:40:29.671Z,100.00
2022-09-03T05:43:00.344Z,100.00
2022-09-03T05:45:29.957Z,100.00
2022-09-03T05:48:00.650Z,100.00
2022-09-03T05:50:29.455Z,100.00
2022-09-03T05:53:00.788Z,100.00
2022-09-03T05:55:29.520Z,100.00
2022-09-03T05:57:58.251Z,100.00
2022-09-03T06:00:27.518Z,100.00
2022-09-03T06:02:56.853Z,100.00
2022-09-03T06:05:25.641Z,100.00
2022-09-03T06:07:54.461Z,100.00
2022-09-03T06:10:26.257Z,100.00
2022-09-03T06:12:54.293Z,100.00
2022-09-03T06:15:23.055Z,100.00
2022-09-03T06:17:51.866Z,100.00
2022-09-03T06:20:20.818Z,100.00
2022-09-03T06:22:51.900Z,100.00
2022-09-03T06:25:20.649Z,100.00
2022-09-03T06:27:50.093Z,100.00
2022-09-03T06:30:18.855Z,100.00
2022-09-03T06:32:47.980Z,100.00
2022-09-03T06:35:16.929Z,100.00
2022-09-03T06:37:46.743Z,100.00
2022-09-03T06:40:17.299Z,100.00
2022-09-03T06:42:46.219Z,100.00
2022-09-03T06:45:16.940Z,100.00
2022-09-03T06:47:45.600Z,100.00
2022-09-03T06:50:14.403Z,100.00
2022-09-03T06:52:43.166Z,100.00
2022-09-03T06:55:11.993Z,100.00
2022-09-03T06:57:40.691Z,100.00
2022-09-03T07:00:09.858Z,100.00
2022-09-03T07:02:44.287Z,100.00
2022-09-03T07:05:10.587Z,100.00
2022-09-03T07:07:39.378Z,100.00
2022-09-03T07:10:10.121Z,100.00
2022-09-03T07:12:38.943Z,100.00
2022-09-03T07:15:08.104Z,100.00
2022-09-03T07:17:37.134Z,100.00
2022-09-03T07:20:06.094Z,100.00
2022-09-03T07:22:35.019Z,100.00
2022-09-03T07:25:03.971Z,100.00
2022-09-03T07:27:32.800Z,100.00
2022-09-03T07:30:03.092Z,100.00
2022-09-03T07:32:31.840Z,100.00
2022-09-03T07:35:00.609Z,100.00
2022-09-03T07:37:29.339Z,100.00
2022-09-03T07:39:58.210Z,100.00
2022-09-03T07:42:28.636Z,100.00
2022-09-03T07:44:58.587Z,100.00
2022-09-03T07:47:28.097Z,100.00
2022-09-03T07:49:56.919Z,100.00
2022-09-03T07:52:26.790Z,100.00
2022-09-03T07:54:55.529Z,100.00
2022-09-03T07:57:24.412Z,100.00
2022-09-03T07:59:54.184Z,100.00
2022-09-03T08:02:23.117Z,100.00
2022-09-03T08:04:52.180Z,100.00
2022-09-03T08:07:20.961Z,100.00
2022-09-03T08:09:50.914Z,100.00
2022-09-03T08:12:19.664Z,100.00
2022-09-03T08:14:48.492Z,100.00
2022-09-03T08:17:18.215Z,100.00
2022-09-03T08:19:47.414Z,100.00
2022-09-03T08:22:16.211Z,100.00
2022-09-03T08:24:45.500Z,100.00
2022-09-03T08:27:15.327Z,100.00
2022-09-03T08:29:45.738Z,98.55
2022-09-03T08:32:14.522Z,100.00
2022-09-03T08:34:44.351Z,100.00
2022-09-03T08:37:13.427Z,100.00
2022-09-03T08:39:42.351Z,100.00
2022-09-03T08:42:15.887Z,100.00
2022-09-03T08:44:49.113Z,100.00
2022-09-03T08:47:28.458Z,100.00
2022-09-03T08:50:04.714Z,100.00
2022-09-03T08:52:35.418Z,100.00
2022-09-03T08:55:09.073Z,100.00
2022-09-03T08:57:39.315Z,100.00
2022-09-03T09:00:08.443Z,100.00
2022-09-03T09:02:38.741Z,97.72
2022-09-03T09:05:11.120Z,100.00
2022-09-03T09:07:55.932Z,94.83
2022-09-03T09:10:38.437Z,98.15
2022-09-03T09:13:13.399Z,95.31
2022-09-03T09:15:43.719Z,97.29
2022-09-03T09:18:19.721Z,95.29
2022-09-03T09:20:55.949Z,90.25
2022-09-03T09:23:28.900Z,95.07
2022-09-03T09:25:59.747Z,92.04
2022-09-03T09:28:36.321Z,92.67
2022-09-03T09:31:07.727Z,95.63
2022-09-03T09:33:36.969Z,94.38
2022-09-03T09:36:08.625Z,91.86
2022-09-03T09:38:40.554Z,91.45
2022-09-03T09:41:10.912Z,90.74
2022-09-03T09:43:40.173Z,98.54
2022-09-03T09:46:19.424Z,95.15
2022-09-03T09:48:55.979Z,94.84
2022-09-03T09:51:26.769Z,90.30
2022-09-03T09:54:03.123Z,89.23
2022-09-03T09:56:32.211Z,90.12
2022-09-03T09:59:05.580Z,90.19
2022-09-03T10:01:35.171Z,90.00
2022-09-03T10:04:14.763Z,89.25
2022-09-03T10:07:00.237Z,89.89
2022-09-03T10:09:31.092Z,88.79
2022-09-03T10:12:03.614Z,89.43
2022-09-03T10:14:35.425Z,86.46
2022-09-03T10:17:11.783Z,87.81
2022-09-03T10:19:42.067Z,84.40
2022-09-03T10:22:15.679Z,87.84
2022-09-03T10:25:01.544Z,87.15
2022-09-03T10:27:31.995Z,91.89
2022-09-03T10:30:01.534Z,83.30
2022-09-03T10:32:37.841Z,85.98
2022-09-03T10:35:08.239Z,86.21
2022-09-03T10:37:39.547Z,86.76
2022-09-03T10:40:28.227Z,88.08
2022-09-03T10:43:14.118Z,82.99
2022-09-03T10:46:03.650Z,85.10
2022-09-03T10:48:45.855Z,90.00
2022-09-03T10:51:18.882Z,89.72
2022-09-03T10:54:01.483Z,87.07
2022-09-03T10:56:34.776Z,83.98
2022-09-03T10:59:05.079Z,86.92
2022-09-03T11:01:38.159Z,83.68
2022-09-03T11:04:20.558Z,91.31
2022-09-03T11:06:51.049Z,87.33
2022-09-03T11:09:21.269Z,85.38
2022-09-03T11:12:00.305Z,86.02
2022-09-03T11:14:33.766Z,89.41
2022-09-03T11:17:03.996Z,92.13
2022-09-03T11:19:37.998Z,89.90
2022-09-03T11:22:08.223Z,87.33
2022-09-03T11:24:40.010Z,87.00
2022-09-03T11:27:10.812Z,85.30
2022-09-03T11:29:41.127Z,84.40
2022-09-03T11:32:11.917Z,87.37
2022-09-03T11:34:50.836Z,84.65
2022-09-03T11:37:21.114Z,82.42
2022-09-03T11:39:57.799Z,83.62
2022-09-03T11:42:34.156Z,87.42
2022-09-03T11:45:22.651Z,90.53
2022-09-03T11:47:51.806Z,88.11
2022-09-03T11:50:22.119Z,88.78
2022-09-03T11:52:53.431Z,83.93
2022-09-03T11:55:26.203Z,86.73
2022-09-03T11:57:54.992Z,84.75
2022-09-03T12:00:25.117Z,86.00
2022-09-03T12:02:59.010Z,87.84
2022-09-03T12:05:34.934Z,87.88
2022-09-03T12:08:09.081Z,90.02
2022-09-03T12:10:51.599Z,92.30
2022-09-03T12:13:24.944Z,90.85
2022-09-03T12:16:10.703Z,87.79
2022-09-03T12:18:41.488Z,89.05
2022-09-03T12:21:11.127Z,87.50
2022-09-03T12:23:50.258Z,89.78
2022-09-03T12:26:20.856Z,89.76
2022-09-03T12:28:52.735Z,91.81
2022-09-03T12:31:25.300Z,88.98
2022-09-03T12:33:55.486Z,89.22
2022-09-03T12:36:24.484Z,87.91
2022-09-03T12:39:12.010Z,79.40
2022-09-03T12:41:28.249Z,82.34
2022-09-03T12:43:58.208Z,79.35
2022-09-03T12:46:33.209Z,82.65
2022-09-03T12:51:56.730Z,84.42
2022-09-03T12:54:11.486Z,78.47
2022-09-03T12:56:42.416Z,80.19
2022-09-03T12:59:13.042Z,77.44
2022-09-03T13:01:43.314Z,79.24
2022-09-03T13:04:15.324Z,78.93
2022-09-03T13:06:45.607Z,82.72
2022-09-03T13:09:15.684Z,84.39
2022-09-03T13:11:45.217Z,83.13
2022-09-03T13:14:16.079Z,84.32
2022-09-03T13:16:48.907Z,81.64
2022-09-03T13:19:28.744Z,86.31
2022-09-03T13:22:05.620Z,83.95
2022-09-03T13:24:44.855Z,85.33
2022-09-03T13:27:31.723Z,84.33
2022-09-03T13:30:13.768Z,82.47
2022-09-03T13:32:44.118Z,82.63
2022-09-03T13:35:16.261Z,84.03
2022-09-03T13:37:48.226Z,86.83
2022-09-03T13:40:29.511Z,82.83
2022-09-03T13:43:01.397Z,82.62
2022-09-03T13:45:31.937Z,84.52
2022-09-03T13:48:29.724Z,87.03
2022-09-03T13:51:06.336Z,91.14
2022-09-03T13:53:36.826Z,86.04
2022-09-03T13:56:25.421Z,85.55
2022-09-03T13:58:55.632Z,86.11
2022-09-03T14:01:25.918Z,86.42
2022-09-03T14:03:56.200Z,87.16
2022-09-03T14:06:32.471Z,87.93
2022-09-03T14:09:02.777Z,86.11
2022-09-03T14:11:48.041Z,89.05
2022-09-03T14:14:37.381Z,82.32
2022-09-03T14:17:16.341Z,83.12
2022-09-03T14:19:50.738Z,81.15
2022-09-03T14:22:23.718Z,84.59
2022-09-03T14:24:54.091Z,84.08
2022-09-03T14:27:28.130Z,85.58
2022-09-03T14:30:03.977Z,85.77
2022-09-03T14:32:37.913Z,86.76
2022-09-03T14:35:09.683Z,88.16
2022-09-03T14:37:58.444Z,84.60
2022-09-03T14:40:46.957Z,88.84
2022-09-03T14:43:23.333Z,89.27
2022-09-03T14:46:05.034Z,88.76
2022-09-03T14:48:37.876Z,87.13
2022-09-03T14:51:11.182Z,91.61
2022-09-03T14:53:43.038Z,89.09
2022-09-03T14:56:20.201Z,94.00
2022-09-03T14:58:50.534Z,91.62
2022-09-03T15:01:20.842Z,88.16
2022-09-03T15:03:51.172Z,87.81
2022-09-03T15:06:41.075Z,91.24
2022-09-03T15:09:14.054Z,87.75
2022-09-03T15:11:44.227Z,90.88
2022-09-03T15:14:17.391Z,91.94
2022-09-03T15:16:47.964Z,91.96
2022-09-03T15:19:18.334Z,94.65
2022-09-03T15:21:48.620Z,93.11
2022-09-03T15:24:21.955Z,95.82
2022-09-03T15:26:59.214Z,90.78
2022-09-03T15:29:44.578Z,94.75
2022-09-03T15:32:14.841Z,95.83
2022-09-03T15:34:45.172Z,95.09
2022-09-03T15:37:15.405Z,94.14
2022-09-03T15:39:45.419Z,92.69
2022-09-03T15:42:18.661Z,93.54
2022-09-03T15:44:48.925Z,92.65
2022-09-03T15:47:21.860Z,93.98
2022-09-03T15:49:55.578Z,96.04
2022-09-03T15:52:31.951Z,94.25
2022-09-03T15:55:03.152Z,95.63
2022-09-03T15:57:36.648Z,96.15
2022-09-03T16:00:13.446Z,95.61
2022-09-03T16:02:50.704Z,96.89
2022-09-03T16:05:20.937Z,96.83
2022-09-03T16:07:51.244Z,97.40
2022-09-03T16:10:24.643Z,96.10
2022-09-03T16:12:53.222Z,96.75
2022-09-03T16:15:23.713Z,99.31
2022-09-03T16:18:09.300Z,99.74
2022-09-03T16:20:39.609Z,99.58
2022-09-03T16:23:22.066Z,100.00
2022-09-03T16:25:52.922Z,100.00
2022-09-03T16:28:23.251Z,100.00
2022-09-03T16:30:53.657Z,100.00
2022-09-03T16:33:26.616Z,100.00
2022-09-03T16:35:56.965Z,100.00
2022-09-03T16:38:27.246Z,100.00
2022-09-03T16:40:57.488Z,100.00
2022-09-03T16:43:41.672Z,100.00
2022-09-03T16:46:08.826Z,100.00
2022-09-03T16:48:43.843Z,100.00
2022-09-03T16:51:23.871Z,100.00
2022-09-03T16:54:06.276Z,100.00
2022-09-03T16:56:46.484Z,100.00
2022-09-03T16:59:16.727Z,100.00
2022-09-03T17:01:56.668Z,100.00
2022-09-03T17:04:30.169Z,100.00
2022-09-03T17:07:09.485Z,100.00
2022-09-03T17:09:39.724Z,100.00
2022-09-03T17:12:15.999Z,100.00
2022-09-03T17:14:46.344Z,100.00
2022-09-03T17:17:19.407Z,100.00
2022-09-03T17:20:06.272Z,100.00
2022-09-03T17:22:53.365Z,100.00
2022-09-03T17:25:23.878Z,100.00
2022-09-03T17:28:03.158Z,100.00
2022-09-03T17:30:48.508Z,100.00
2022-09-03T17:33:35.134Z,100.00
2022-09-03T17:36:06.230Z,100.00
2022-09-03T17:38:42.167Z,100.00
2022-09-03T17:41:15.408Z,100.00
2022-09-03T17:43:45.664Z,100.00
2022-09-03T17:46:33.819Z,100.00
2022-09-03T17:49:03.358Z,100.00
2022-09-03T17:51:36.922Z,100.00
2022-09-03T17:54:11.145Z,100.00
2022-09-03T17:56:47.176Z,100.00
2022-09-03T17:59:20.487Z,100.00
2022-09-03T18:01:50.819Z,100.00
2022-09-03T18:04:35.038Z,100.00
2022-09-03T18:07:05.500Z,100.00
2022-09-03T18:09:37.881Z,100.00
2022-09-03T18:12:20.045Z,100.00
2022-09-03T18:14:56.301Z,100.00
2022-09-03T18:17:29.611Z,100.00
2022-09-03T18:20:20.802Z,100.00
2022-09-03T18:23:09.193Z,100.00
2022-09-03T18:25:57.233Z,100.00
2022-09-03T18:28:48.326Z,100.00
2022-09-03T18:31:35.115Z,100.00
2022-09-03T18:34:22.182Z,100.00
2022-09-03T18:37:08.956Z,100.00
2022-09-03T18:39:55.568Z,100.00
2022-09-03T18:43:02.065Z,100.00
2022-09-03T18:48:42.851Z,100.00
2022-09-03T18:51:31.456Z,100.00
2022-09-03T18:54:19.959Z,100.00
2022-09-03T18:57:09.879Z,100.00
2022-09-03T19:00:06.572Z,100.00
2022-09-03T19:03:01.355Z,100.00
2022-09-03T19:05:49.827Z,100.00
2022-09-03T19:08:41.051Z,100.00
2022-09-03T19:11:38.035Z,100.00
2022-09-03T19:14:25.761Z,100.00
2022-09-03T19:17:19.843Z,100.00
2022-09-03T19:20:24.791Z,100.00
2022-09-03T19:23:11.111Z,100.00
2022-09-03T19:25:57.853Z,100.00
2022-09-03T19:28:45.680Z,100.00
2022-09-03T19:31:42.894Z,100.00
2022-09-03T19:34:33.746Z,100.00
2022-09-03T19:37:30.508Z,100.00
2022-09-03T19:40:18.325Z,100.00
2022-09-03T19:43:12.457Z,100.00
2022-09-03T19:46:00.385Z,100.00
2022-09-03T19:49:05.301Z,100.00
2022-09-03T19:52:11.856Z,100.00
2022-09-03T19:54:58.784Z,100.00
2022-09-03T19:57:46.168Z,100.00
2022-09-03T20:00:33.608Z,100.00
2022-09-03T20:03:20.964Z,100.00
2022-09-03T20:06:11.184Z,100.00
2022-09-03T20:08:56.590Z,100.00
2022-09-03T20:11:28.041Z,100.00
2022-09-03T20:14:13.446Z,100.00
2022-09-03T20:16:52.856Z,100.00
2022-09-03T20:19:33.194Z,100.00
2022-09-03T20:22:15.740Z,100.00
2022-09-03T20:24:59.783Z,100.00
2022-09-03T20:27:31.922Z,100.00
2022-09-03T20:30:03.335Z,100.00
2022-09-03T20:32:36.489Z,100.00
2022-09-03T20:35:19.191Z,100.00
2022-09-03T20:37:51.676Z,100.00
2022-09-03T20:40:22.142Z,100.00
2022-09-03T20:42:56.845Z,100.00
2022-09-03T20:45:27.107Z,100.00
2022-09-03T20:48:14.378Z,100.00
2022-09-03T20:50:47.709Z,100.00
2022-09-03T20:53:35.528Z,100.00
2022-09-03T20:56:11.725Z,100.00
2022-09-03T20:58:44.605Z,100.00
2022-09-03T21:01:32.068Z,100.00
2022-09-03T21:04:04.478Z,100.00
2022-09-03T21:06:37.181Z,100.00
2022-09-03T21:09:25.288Z,100.00
2022-09-03T21:11:55.534Z,100.00
2022-09-03T21:14:37.679Z,100.00
2022-09-03T21:17:15.854Z,100.00
2022-09-03T21:19:48.803Z,100.00
2022-09-03T21:22:34.520Z,100.00
2022-09-03T21:25:04.900Z,100.00
2022-09-03T21:27:35.232Z,100.00
2022-09-03T21:30:05.704Z,100.00
2022-09-03T21:32:45.408Z,100.00
2022-09-03T21:35:15.742Z,100.00
2022-09-03T21:37:45.969Z,100.00
2022-09-03T21:40:19.880Z,100.00
2022-09-03T21:42:48.339Z,100.00
2022-09-03T21:45:30.955Z,100.00
2022-09-03T21:48:16.458Z,100.00
2022-09-03T21:50:52.437Z,100.00
2022-09-03T21:53:22.819Z,100.00
2022-09-03T21:55:56.358Z,100.00
2022-09-03T21:58:32.491Z,100.00
2022-09-03T22:01:04.553Z,100.00
2022-09-03T22:03:34.157Z,100.00
2022-09-03T22:06:13.387Z,100.00
2022-09-03T22:08:45.367Z,100.00
2022-09-03T22:11:15.739Z,100.00
2022-09-03T22:13:46.103Z,100.00
2022-09-03T22:16:19.101Z,100.00
2022-09-03T22:18:49.447Z,100.00
2022-09-03T22:21:23.567Z,100.00
2022-09-03T22:24:21.517Z,100.00
2022-09-03T22:27:01.490Z,100.00
2022-09-03T22:29:34.453Z,100.00
2022-09-03T22:32:10.671Z,100.00
2022-09-03T22:34:41.989Z,100.00
2022-09-03T22:37:30.619Z,100.00
2022-09-03T22:40:13.257Z,100.00
2022-09-03T22:42:46.651Z,100.00
2022-09-03T22:45:29.027Z,100.00
2022-09-03T22:48:08.296Z,100.00
2022-09-03T22:50:47.494Z,100.00
2022-09-03T22:53:26.871Z,100.00
2022-09-03T22:55:57.088Z,100.00
2022-09-03T22:58:28.888Z,100.00
2022-09-03T23:00:59.279Z,100.00
2022-09-03T23:03:42.270Z,100.00
2022-09-03T23:06:13.131Z,100.00
2022-09-03T23:08:46.386Z,100.00
2022-09-03T23:11:21.050Z,100.00
2022-09-03T23:13:51.449Z,100.00
2022-09-03T23:16:38.987Z,100.00
2022-09-03T23:19:11.173Z,100.00
2022-09-03T23:21:42.076Z,100.00
2022-09-03T23:24:12.846Z,100.00
2022-09-03T23:26:43.133Z,100.00
2022-09-03T23:29:13.598Z,100.00
2022-09-03T23:31:42.600Z,100.00
2022-09-03T23:34:12.265Z,100.00
2022-09-03T23:37:10.410Z,100.00
2022-09-03T23:39:36.629Z,100.00
2022-09-03T23:42:10.514Z,100.00
2022-09-03T23:44:52.055Z,100.00
2022-09-03T23:47:39.183Z,100.00
2022-09-03T23:50:25.381Z,100.00
2022-09-03T23:52:55.694Z,100.00
2022-09-03T23:55:31.763Z,100.00
2022-09-03T23:58:10.719Z,100.00
